createdAt,value
2023-04-16T05:02:55.483Z,91.58
2023-04-16T05:07:56.974Z,92.06
2023-04-16T05:12:58.478Z,91.57
2023-04-16T05:17:59.934Z,91.73
2023-04-16T05:23:01.396Z,92.17
2023-04-16T05:28:02.862Z,91.80
2023-04-16T05:33:04.320Z,91.50
2023-04-16T05:38:07.080Z,91.65
2023-04-16T05:43:08.541Z,91.20
2023-04-16T05:48:10.422Z,91.65
2023-04-16T05:53:15.457Z,90.77
2023-04-16T05:58:16.928Z,91.16
2023-04-16T06:03:18.489Z,91.48
2023-04-16T06:08:20.010Z,91.49
2023-04-16T06:13:21.644Z,92.18
2023-04-16T06:18:23.387Z,92.58
2023-04-16T06:23:24.861Z,92.45
2023-04-16T06:28:26.344Z,93.59
2023-04-16T06:33:27.825Z,94.56
2023-04-16T06:38:29.258Z,94.52
2023-04-16T06:43:33.335Z,95.29
2023-04-16T06:48:34.780Z,95.40
2023-04-16T06:53:37.446Z,95.94
2023-04-16T06:58:38.928Z,96.72
2023-04-16T07:03:40.658Z,96.88
2023-04-16T07:08:42.231Z,97.23
2023-04-16T07:13:43.684Z,97.22
2023-04-16T07:18:45.435Z,97.57
2023-04-16T07:23:46.902Z,97.65
2023-04-16T07:28:48.337Z,97.86
2023-04-16T07:33:49.958Z,97.91
2023-04-16T07:38:51.447Z,97.70
2023-04-16T07:43:52.972Z,97.39
2023-04-16T07:48:54.412Z,96.66
2023-04-16T07:53:55.867Z,96.85
2023-04-16T07:58:58.346Z,96.01
2023-04-16T08:04:04.889Z,95.25
2023-04-16T08:09:06.420Z,95.48
2023-04-16T08:14:08.244Z,95.91
2023-04-16T08:19:09.923Z,95.88
2023-04-16T08:24:11.797Z,95.41
2023-04-16T08:29:13.451Z,94.42
2023-04-16T08:34:15.196Z,95.33
2023-04-16T08:39:16.783Z,95.23
2023-04-16T08:44:26.727Z,93.92
2023-04-16T08:49:28.729Z,94.22
2023-04-16T08:54:46.450Z,93.85
2023-04-16T09:00:00.919Z,94.17
2023-04-16T09:05:05.132Z,92.54
2023-04-16T09:10:08.191Z,93.68
2023-04-16T09:15:11.368Z,93.66
2023-04-16T09:20:12.936Z,93.28
2023-04-16T09:25:14.920Z,93.42
2023-04-16T09:30:22.956Z,92.28
2023-04-16T09:35:24.481Z,92.10
2023-04-16T09:40:30.402Z,90.70
2023-04-16T09:45:32.656Z,91.91
2023-04-16T09:50:34.234Z,90.58
2023-04-16T09:55:35.803Z,90.96
2023-04-16T10:00:42.213Z,90.45
2023-04-16T10:05:45.319Z,91.31
2023-04-16T10:10:47.131Z,91.28
2023-04-16T10:15:49.846Z,90.37
2023-04-16T10:20:51.775Z,90.74
2023-04-16T10:25:56.418Z,91.01
2023-04-16T10:31:01.359Z,89.52
2023-04-16T10:36:14.065Z,89.51
2023-04-16T10:41:15.500Z,92.91
2023-04-16T10:46:17.655Z,90.53
2023-04-16T10:51:33.819Z,89.49
2023-04-16T10:56:36.958Z,89.96
2023-04-16T11:01:42.961Z,88.53
2023-04-16T11:07:01.854Z,86.87
2023-04-16T11:12:07.483Z,87.96
2023-04-16T11:17:09.778Z,87.84
2023-04-16T11:22:17.472Z,87.93
2023-04-16T11:27:19.160Z,87.18
2023-04-16T11:32:22.471Z,85.09
2023-04-16T11:37:36.690Z,83.11
2023-04-16T11:42:43.363Z,84.61
2023-04-16T11:47:51.900Z,85.37
2023-04-16T11:52:56.006Z,84.35
2023-04-16T11:57:57.699Z,83.15
2023-04-16T12:02:59.362Z,83.67
2023-04-16T12:08:03.528Z,83.32
2023-04-16T12:13:11.412Z,82.24
2023-04-16T12:18:12.986Z,83.63
2023-04-16T12:23:33.882Z,82.14
2023-04-16T12:28:38.374Z,82.97
2023-04-16T12:33:39.922Z,80.70
2023-04-16T12:38:41.423Z,81.21
2023-04-16T12:43:42.869Z,81.35
2023-04-16T12:48:44.585Z,81.94
2023-04-16T12:53:46.124Z,78.21
2023-04-16T12:58:50.551Z,79.30
2023-04-16T13:03:52.387Z,78.94
2023-04-16T13:08:54.018Z,78.02
2023-04-16T13:13:55.655Z,79.52
2023-04-16T13:18:57.076Z,78.39
2023-04-16T13:23:59.237Z,76.07
2023-04-16T13:29:00.794Z,71.15
2023-04-16T13:34:03.445Z,73.21
2023-04-16T13:39:10.576Z,74.30
2023-04-16T13:44:12.200Z,75.81
2023-04-16T13:49:14.387Z,76.20
2023-04-16T13:54:15.910Z,76.75
2023-04-16T13:59:18.164Z,78.11
2023-04-16T14:04:19.766Z,82.07
2023-04-16T14:09:21.273Z,80.05
2023-04-16T14:14:22.765Z,80.14
2023-04-16T14:19:24.265Z,78.56
2023-04-16T14:24:25.974Z,80.00
2023-04-16T14:29:27.483Z,79.17
2023-04-16T14:34:29.091Z,79.27
2023-04-16T14:39:30.955Z,79.30
2023-04-16T14:44:32.790Z,79.18
2023-04-16T14:49:34.645Z,79.41
2023-04-16T14:54:36.128Z,78.60
2023-04-16T14:59:37.573Z,78.14
2023-04-16T15:04:39.306Z,78.00
2023-04-16T15:09:40.922Z,77.04
2023-04-16T15:14:43.074Z,75.47
2023-04-16T15:19:44.542Z,75.52
2023-04-16T15:24:46.078Z,76.55
2023-04-16T15:29:49.275Z,77.46
2023-04-16T15:34:50.856Z,76.15
2023-04-16T15:39:52.279Z,77.00
2023-04-16T15:44:53.781Z,77.66
2023-04-16T15:49:55.306Z,79.57
2023-04-16T15:54:56.818Z,79.45
2023-04-16T16:05:03.237Z,80.68
2023-04-16T16:10:06.037Z,80.53
2023-04-16T16:15:08.036Z,81.05
2023-04-16T16:20:10.430Z,81.61
2023-04-16T16:25:12.048Z,81.65
2023-04-16T16:30:13.772Z,82.85
2023-04-16T16:35:15.409Z,83.68
2023-04-16T16:40:16.890Z,83.68
2023-04-16T16:45:18.513Z,83.66
2023-04-16T16:50:20.176Z,84.33
2023-04-16T16:55:21.831Z,84.92
2023-04-16T17:00:23.255Z,85.20
2023-04-16T17:05:24.709Z,85.33
2023-04-16T17:10:26.272Z,85.72
2023-04-16T17:15:27.869Z,85.97
2023-04-16T17:20:29.511Z,86.62
2023-04-16T17:25:31.182Z,86.83
2023-04-16T17:30:32.632Z,86.95
2023-04-16T17:35:34.149Z,86.88
2023-04-16T17:40:35.818Z,87.14
2023-04-16T17:45:37.310Z,87.38
2023-04-16T17:50:39.650Z,87.44
2023-04-16T17:55:50.238Z,87.64
2023-04-16T18:00:51.712Z,88.09
2023-04-16T18:05:53.176Z,88.50
2023-04-16T18:10:57.785Z,89.13
2023-04-16T18:15:59.207Z,89.28
2023-04-16T18:21:00.641Z,89.51
2023-04-16T18:26:02.583Z,89.72
2023-04-16T18:31:06.594Z,89.93
2023-04-16T18:36:08.102Z,89.97
2023-04-16T18:41:19.698Z,90.03
2023-04-16T18:46:21.208Z,90.24
2023-04-16T18:51:22.728Z,90.36
2023-04-16T18:56:24.191Z,90.46
2023-04-16T19:01:25.733Z,90.46
2023-04-16T19:06:27.740Z,90.76
2023-04-16T19:11:29.179Z,91.28
2023-04-16T19:16:30.758Z,90.62
2023-04-16T19:21:32.471Z,90.50
2023-04-16T19:26:34.050Z,90.82
2023-04-16T19:31:35.742Z,91.17
2023-04-16T19:36:37.180Z,91.31
2023-04-16T19:41:38.623Z,91.55
2023-04-16T19:46:40.204Z,91.48
2023-04-16T19:51:41.626Z,91.22
2023-04-16T19:56:43.260Z,91.60
2023-04-16T20:01:45.061Z,91.84
2023-04-16T20:06:46.600Z,91.86
2023-04-16T20:11:48.037Z,92.13
2023-04-16T20:16:49.714Z,92.20
2023-04-16T20:21:51.922Z,92.15
2023-04-16T20:26:53.369Z,92.21
2023-04-16T20:31:54.872Z,91.87
2023-04-16T20:36:57.878Z,92.04
2023-04-16T20:42:00.777Z,91.78
2023-04-16T20:47:02.216Z,92.02
2023-04-16T20:52:04.698Z,91.64
2023-04-16T20:57:06.334Z,92.02
2023-04-16T21:02:07.985Z,92.18
2023-04-16T21:07:09.566Z,92.48
2023-04-16T21:12:11.171Z,92.35
2023-04-16T21:17:12.620Z,92.50
2023-04-16T21:22:14.109Z,92.16
2023-04-16T21:27:15.632Z,92.20
2023-04-16T21:32:17.182Z,92.36
2023-04-16T21:37:18.655Z,92.26
2023-04-16T21:42:20.290Z,92.36
2023-04-16T21:47:21.814Z,92.21
2023-04-16T21:52:23.264Z,91.96
2023-04-16T21:57:24.691Z,92.49
